Main page
METAR-TAF:

METAR-TAF

Airports :

Zadar Airport

Zadar, Croatia

latitude: 44-06N, longitude: 015-21E, elevation: 82 m

Current weather observation

The report was made 19 minutes ago, at 20:00 UTC
Wind 4 kt from the East/Southeast
Temperature 0°C
Humidity 93%
Pressure 1019 hPa
Visibility 10 km or more
no clouds below 1500 m and no cumulonimbus

METAR: LDZD 122000Z 12004KT CAVOK 00/M01 Q1019 NOSIG

Time: 21:19 (20:19 UTC)

Forecast

The report was made 2 hours and 6 minutes ago, at 18:13 UTC
Forecast valid from 12 at 18 UTC to 13 at 18 UTC
Wind 6 kt from the East/Southeast
Visibility 10 km or more
Scattered clouds at a height of 3000 ft
Becoming
from 13 at 06 UTC to 13 at 08 UTC
Wind 12 kt from the East
Temporary
from 13 at 11 UTC to 13 at 18 UTC
rain

TAF: LDZD 121813Z 1218/1318 12006KT 9999 SCT030 TX07/1312Z TN00/1221Z BECMG 1306/1308 10012KT TEMPO 1311/1318 RA

Weather observations and forecasts of more than 4000 airports (METAR and TAF reports).

The available stations are represented by yellow and red dots on the map.

Hover mouse over dot to see the name of the station.

Then click to see weather observations and forecasts.

To change the map : click on the green buttons with a black cross to zoom in, on the green button with a dash to zoom out, or on the green arrows for adjacent maps.


METAR-TAF: